Trussville, Alabama
Current Conditions -  °F | °C
As of 1:53 PM on Monday 24 Nov 2014 (Local Time) from KBHM Reporting Station
Scattered Clouds Scattered Clouds  
Wind Chill: 19°   Ceiling: Unl
Heat Index: 19°   Visibility: 10mi
Dew Point:   Wind: 14mph
Humidity: 47%   Direction: 280°W
Pressure: 29.87"   Gusts: NA
Location:  33.62°N, 86.6°W
Report Text: KBHM 241953Z 28012KT 10SM FEW050 SCT250 19/07 A2987 RMK AO2 SLP108 T01890072
Loading
Personal Weather Stations






























Interactive Weather Map New forecast layout! Learn more

10-Day Weather Forecast

Advertisements
Track Severe Weather on mobile